Time;durP1;ratioP1;P1;durP2;ratioP2;P2;SDS_P1;SDS_P2;PMS_P1;PMS_P2;Temp;Humidity;BMP_temperature;BMP_pressure;BME280_temperature;BME280_humidity;BME280_pressure;Samples;Min_cycle;Max_cycle;Signal;HPM_P1;HPM_P2
2022/08/07 00:00:46;;;;;;;12.28;10.30;;;;;;;20.95;100.00;99637.67;1714618;82;21020;-66
2022/08/07 00:03:13;;;;;;;13.22;11.30;;;;;;;20.98;100.00;99634.22;1721872;82;21138;-66
2022/08/07 00:05:39;;;;;;;11.90;10.68;;;;;;;21.00;100.00;99644.39;1694164;83;21033;-66
2022/08/07 00:08:06;;;;;;;12.03;10.90;;;;;;;20.99;100.00;99648.87;1724583;81;21098;-66
2022/08/07 00:10:32;;;;;;;11.78;10.58;;;;;;;20.96;100.00;99642.07;1719396;82;21027;-66
2022/08/07 00:13:01;;;;;;;12.47;11.08;;;;;;;20.86;100.00;99638.36;1725076;82;21047;-66
2022/08/07 00:15:29;;;;;;;11.95;10.70;;;;;;;20.74;100.00;99644.66;1724654;81;21047;-66
2022/08/07 00:17:56;;;;;;;12.98;10.55;;;;;;;20.63;100.00;99640.70;1725948;81;21067;-66
2022/08/07 00:20:23;;;;;;;12.93;11.55;;;;;;;20.59;100.00;99643.91;1719072;82;21363;-66
2022/08/07 00:22:50;;;;;;;12.23;10.98;;;;;;;20.61;100.00;99640.81;1720381;82;21063;-66
2022/08/07 00:25:16;;;;;;;12.65;11.35;;;;;;;20.65;100.00;99644.52;1729468;82;21086;-66
2022/08/07 00:27:43;;;;;;;13.50;10.98;;;;;;;20.64;100.00;99645.09;1719630;82;21573;-66
2022/08/07 00:30:11;;;;;;;13.13;10.98;;;;;;;20.60;100.00;99656.59;1738323;81;21047;-66
2022/08/07 00:32:37;;;;;;;14.60;11.78;;;;;;;20.52;100.00;99649.75;1707242;82;21138;-66
2022/08/07 00:35:05;;;;;;;14.80;11.90;;;;;;;20.42;100.00;99644.08;1728656;82;21008;-66
2022/08/07 00:37:32;;;;;;;13.55;11.80;;;;;;;20.36;100.00;99642.67;1703394;82;21346;-66
2022/08/07 00:39:59;;;;;;;16.95;11.30;;;;;;;20.34;100.00;99651.30;1687464;83;21115;-65
2022/08/07 00:42:26;;;;;;;12.82;11.50;;;;;;;20.34;100.00;99650.48;1669956;84;21136;-66
2022/08/07 00:44:52;;;;;;;12.28;10.98;;;;;;;20.34;100.00;99656.01;1673500;84;21104;-66
2022/08/07 00:47:19;;;;;;;12.13;10.95;;;;;;;20.33;100.00;99651.05;1731293;82;21075;-66
2022/08/07 00:49:46;;;;;;;13.35;10.20;;;;;;;20.35;100.00;99650.72;1717660;81;21590;-66
2022/08/07 00:52:13;;;;;;;14.70;11.20;;;;;;;20.32;100.00;99650.83;1719411;81;21668;-66
2022/08/07 00:54:39;;;;;;;13.22;10.63;;;;;;;20.30;100.00;99648.97;1726332;82;21012;-66
2022/08/07 00:57:06;;;;;;;13.48;11.48;;;;;;;20.33;100.00;99654.41;1703639;82;21054;-66
2022/08/07 00:59:33;;;;;;;14.87;11.25;;;;;;;20.32;100.00;99656.36;1717290;82;21060;-66
2022/08/07 01:02:01;;;;;;;13.40;10.55;;;;;;;20.37;100.00;99653.95;1726106;80;21420;-66
2022/08/07 01:04:27;;;;;;;12.43;11.05;;;;;;;20.35;100.00;99663.98;1721151;82;21046;-66
2022/08/07 01:06:55;;;;;;;12.65;10.88;;;;;;;20.27;100.00;99666.77;1734244;82;21016;-66
2022/08/07 01:09:22;;;;;;;13.85;11.18;;;;;;;20.20;100.00;99670.08;1707915;82;20980;-66
2022/08/07 01:11:50;;;;;;;13.95;11.75;;;;;;;20.13;100.00;99667.04;1735547;80;21027;-66
2022/08/07 01:14:21;;;;;;;15.40;11.70;;;;;;;20.06;100.00;99674.24;1682023;83;21098;-66
2022/08/07 01:16:47;;;;;;;13.22;10.75;;;;;;;20.00;100.00;99674.22;1730828;80;21003;-66
2022/08/07 01:19:15;;;;;;;16.37;11.80;;;;;;;19.97;100.00;99676.27;1737050;82;21138;-66
2022/08/07 01:21:42;;;;;;;13.40;11.30;;;;;;;19.93;100.00;99671.98;1731702;80;21099;-66
2022/08/07 01:24:09;;;;;;;14.50;11.05;;;;;;;19.88;100.00;99670.22;1734596;80;21071;-66
2022/08/07 01:26:35;;;;;;;13.38;10.72;;;;;;;19.85;100.00;99670.08;1725731;82;21048;-66
2022/08/07 01:29:02;;;;;;;11.83;10.50;;;;;;;19.83;100.00;99676.52;1722742;82;21130;-66
2022/08/07 01:31:30;;;;;;;12.53;11.22;;;;;;;19.82;100.00;99677.09;1662523;82;21010;-66
2022/08/07 01:34:00;;;;;;;13.53;11.25;;;;;;;19.82;100.00;99670.75;1741448;80;21696;-66
2022/08/07 01:36:29;;;;;;;13.85;11.55;;;;;;;19.82;100.00;99674.33;1725728;82;20999;-66
2022/08/07 01:38:56;;;;;;;12.37;11.18;;;;;;;19.80;100.00;99676.59;1735169;82;21366;-67
2022/08/07 01:41:24;;;;;;;13.10;11.75;;;;;;;19.79;100.00;99680.53;1728789;82;21016;-67
2022/08/07 01:43:51;;;;;;;17.20;11.97;;;;;;;19.77;100.00;99681.41;1741724;80;21062;-67
2022/08/07 01:46:19;;;;;;;13.48;11.48;;;;;;;19.82;100.00;99676.28;1729758;82;21566;-67
2022/08/07 01:48:46;;;;;;;13.30;11.00;;;;;;;19.89;100.00;99679.32;1731808;82;21058;-67
2022/08/07 01:51:23;;;;;;;12.82;11.22;;;;;;;19.93;100.00;99680.27;1728763;82;21004;-67
2022/08/07 01:53:53;;;;;;;14.83;11.73;;;;;;;19.94;100.00;99681.91;1726518;80;21349;-66
2022/08/07 01:56:24;;;;;;;12.95;11.57;;;;;;;19.95;100.00;99674.39;1742785;80;21053;-67
2022/08/07 01:59:04;;;;;;;12.80;11.08;;;;;;;19.93;100.00;99670.61;1730316;82;21004;-66
2022/08/07 02:01:35;;;;;;;14.53;11.55;;;;;;;19.91;100.00;99677.02;1732682;81;21046;-66
2022/08/07 02:04:16;;;;;;;13.45;11.28;;;;;;;19.94;100.00;99674.18;1729943;80;21110;-66
2022/08/07 02:06:45;;;;;;;14.20;11.88;;;;;;;20.00;100.00;99673.64;1712593;82;20991;-66
2022/08/07 02:09:16;;;;;;;15.58;11.28;;;;;;;20.07;100.00;99673.11;1702996;82;21090;-66
2022/08/07 02:11:44;;;;;;;14.53;11.48;;;;;;;20.10;100.00;99669.67;1731273;82;21038;-66
2022/08/07 02:14:11;;;;;;;12.58;11.25;;;;;;;20.08;100.00;99681.08;1752293;80;21537;-66
2022/08/07 02:16:38;;;;;;;15.08;11.75;;;;;;;20.06;100.00;99675.63;1738546;80;21027;-66
2022/08/07 02:19:07;;;;;;;15.05;11.93;;;;;;;20.00;100.00;99676.97;1739941;80;21098;-66
2022/08/07 02:21:36;;;;;;;13.60;11.83;;;;;;;19.92;100.00;99677.27;1732424;82;21025;-66
2022/08/07 02:24:04;;;;;;;18.57;12.00;;;;;;;19.84;100.00;99676.73;1702441;80;21039;-66
2022/08/07 02:26:35;;;;;;;14.10;12.28;;;;;;;19.77;100.00;99685.56;1734477;80;21401;-66
2022/08/07 02:29:05;;;;;;;15.43;12.28;;;;;;;19.71;100.00;99680.56;1713706;82;21122;-67
2022/08/07 02:31:31;;;;;;;13.28;11.73;;;;;;;19.67;100.00;99680.42;1716749;82;21051;-67
2022/08/07 02:34:01;;;;;;;13.83;11.90;;;;;;;19.64;100.00;99679.70;1738484;82;21100;-67
2022/08/07 02:36:28;;;;;;;13.22;11.88;;;;;;;19.61;100.00;99672.09;1727187;80;21067;-66
2022/08/07 02:38:56;;;;;;;13.32;11.93;;;;;;;19.60;100.00;99676.55;1729694;81;21067;-66
2022/08/07 02:41:24;;;;;;;14.80;11.95;;;;;;;19.58;100.00;99678.85;1734169;82;21084;-66
2022/08/07 02:43:51;;;;;;;13.13;11.78;;;;;;;19.56;100.00;99681.12;1731658;82;21113;-65
2022/08/07 02:46:19;;;;;;;14.85;12.33;;;;;;;19.56;100.00;99681.12;1742361;80;21011;-66
2022/08/07 02:48:45;;;;;;;13.55;12.13;;;;;;;19.56;100.00;99687.45;1731793;80;21111;-66
2022/08/07 02:51:15;;;;;;;13.32;11.73;;;;;;;19.58;100.00;99687.14;1733476;82;21125;-66
2022/08/07 02:53:42;;;;;;;13.00;11.70;;;;;;;19.58;100.00;99684.38;1730513;82;21082;-66
2022/08/07 02:56:12;;;;;;;14.38;12.50;;;;;;;19.59;100.00;99686.79;1739943;82;21039;-66
2022/08/07 02:58:39;;;;;;;13.15;11.78;;;;;;;19.60;100.00;99687.03;1744598;80;21079;-66
2022/08/07 03:01:05;;;;;;;14.58;12.98;;;;;;;19.62;100.00;99690.29;1728528;82;21011;-66
2022/08/07 03:03:34;;;;;;;14.18;12.68;;;;;;;19.66;100.00;99683.53;1715049;82;21051;-65
2022/08/07 03:06:01;;;;;;;13.43;12.03;;;;;;;19.70;100.00;99683.89;1717121;82;20983;-65
2022/08/07 03:08:28;;;;;;;14.15;11.68;;;;;;;19.78;100.00;99684.42;1670668;84;21098;-65
2022/08/07 03:10:55;;;;;;;12.63;11.08;;;;;;;19.90;100.00;99685.66;1728043;82;21071;-66
2022/08/07 03:13:24;;;;;;;14.60;11.65;;;;;;;20.00;100.00;99695.75;1725837;82;21063;-65
2022/08/07 03:15:51;;;;;;;12.70;11.50;;;;;;;20.10;100.00;99695.35;1718236;82;21008;-66
2022/08/07 03:18:17;;;;;;;12.15;10.90;;;;;;;20.17;100.00;99685.95;1738666;81;21051;-66
2022/08/07 03:20:44;;;;;;;14.98;12.65;;;;;;;20.23;100.00;99690.70;1718380;82;21059;-65
2022/08/07 03:23:10;;;;;;;14.03;12.53;;;;;;;20.21;100.00;99681.95;1715686;82;21044;-65
2022/08/07 03:25:39;;;;;;;15.43;11.85;;;;;;;20.19;100.00;99687.80;1703712;82;21044;-66
2022/08/07 03:28:11;;;;;;;12.55;11.18;;;;;;;20.17;100.00;99689.28;1730692;81;21027;-66
2022/08/07 03:30:38;;;;;;;12.58;11.28;;;;;;;20.14;100.00;99693.54;1720746;81;21074;-65
2022/08/07 03:33:07;;;;;;;13.05;11.65;;;;;;;20.08;100.00;99695.46;1726778;82;21622;-65
2022/08/07 03:35:34;;;;;;;13.15;11.83;;;;;;;20.04;100.00;99691.74;1724792;82;21079;-66
2022/08/07 03:38:02;;;;;;;13.58;11.50;;;;;;;20.01;100.00;99695.18;1711921;82;21118;-65
2022/08/07 03:40:29;;;;;;;16.73;12.78;;;;;;;20.00;100.00;99695.75;1727229;81;21059;-65
2022/08/07 03:42:56;;;;;;;22.58;20.15;;;;;;;20.01;100.00;99703.47;1714113;82;21570;-65
2022/08/07 03:45:24;;;;;;;36.45;32.28;;;;;;;20.01;100.00;99700.14;1713939;82;21015;-66
2022/08/07 03:47:51;;;;;;;35.43;31.50;;;;;;;20.06;100.00;99706.02;1716595;82;21071;-66
2022/08/07 03:50:19;;;;;;;36.70;32.90;;;;;;;20.14;100.00;99711.50;1724997;81;21021;-66
2022/08/07 03:52:47;;;;;;;34.18;30.48;;;;;;;20.29;100.00;99710.13;1671373;84;21071;-66
2022/08/07 03:55:14;;;;;;;34.63;31.12;;;;;;;20.44;100.00;99705.95;1682476;84;21526;-65
2022/08/07 03:57:42;;;;;;;33.08;29.65;;;;;;;20.57;100.00;99700.71;1678529;83;21141;-66
2022/08/07 04:00:10;;;;;;;27.90;25.10;;;;;;;20.75;100.00;99702.99;1679897;83;21485;-65
2022/08/07 04:02:43;;;;;;;21.23;19.12;;;;;;;20.99;100.00;99711.13;1700234;83;21077;-66
2022/08/07 04:05:12;;;;;;;22.50;20.23;;;;;;;21.20;100.00;99709.95;1708497;83;21129;-66
2022/08/07 04:07:45;;;;;;;19.77;17.80;;;;;;;21.39;100.00;99714.96;1706812;83;21089;-66
2022/08/07 04:10:13;;;;;;;16.85;15.18;;;;;;;21.57;100.00;99715.55;1689998;83;21037;-66
2022/08/07 04:12:40;;;;;;;16.20;14.53;;;;;;;21.70;100.00;99706.91;1709384;83;21005;-66
2022/08/07 04:15:08;;;;;;;18.02;15.15;;;;;;;21.86;100.00;99704.22;1704087;83;21018;-66
2022/08/07 04:17:36;;;;;;;15.93;14.40;;;;;;;22.02;100.00;99710.73;1713210;83;21042;-66
2022/08/07 04:20:06;;;;;;;15.68;13.85;;;;;;;22.19;100.00;99711.05;1656072;84;21049;-66
2022/08/07 04:22:34;;;;;;;15.53;13.93;;;;;;;22.45;100.00;99710.64;1691249;83;21053;-66
2022/08/07 04:25:04;;;;;;;14.55;13.03;;;;;;;22.76;100.00;99699.69;1705672;83;21014;-66
2022/08/07 04:27:31;;;;;;;15.08;13.68;;;;;;;22.99;100.00;99699.33;1683093;83;21075;-66
2022/08/07 04:29:58;;;;;;;15.68;13.65;;;;;;;23.19;100.00;99702.48;1695753;83;21036;-67
2022/08/07 04:32:25;;;;;;;14.53;13.10;;;;;;;23.37;100.00;99687.67;1702298;83;21542;-66
2022/08/07 04:34:53;;;;;;;14.23;12.82;;;;;;;23.46;100.00;99687.50;1688721;83;21055;-66
2022/08/07 04:37:20;;;;;;;16.80;15.00;;;;;;;23.54;100.00;99688.73;1698805;83;21586;-66
2022/08/07 04:39:48;;;;;;;17.25;15.60;;;;;;;23.69;100.00;99687.11;1708123;82;21083;-67
2022/08/07 04:42:15;;;;;;;16.48;14.65;;;;;;;23.86;100.00;99690.89;1708863;83;21067;-65
2022/08/07 04:44:42;;;;;;;16.95;15.15;;;;;;;24.13;100.00;99691.92;1698823;82;21047;-66
2022/08/07 04:47:12;;;;;;;15.13;13.22;;;;;;;24.43;100.00;99690.23;1697373;82;21051;-66
2022/08/07 04:50:01;;;;;;;14.80;13.08;;;;;;;24.74;100.00;99685.09;1690158;83;21007;-67
2022/08/07 04:53:07;;;;;;;15.60;12.20;;;;;;;24.98;100.00;99690.38;1673681;83;21098;-66
2022/08/07 04:55:58;;;;;;;12.53;11.28;;;;;;;25.12;100.00;99686.46;1701058;83;21145;-66
2022/08/07 04:58:39;;;;;;;15.45;12.23;;;;;;;25.32;100.00;99682.24;1702476;82;21098;-65
2022/08/07 05:01:32;;;;;;;14.18;11.38;;;;;;;25.52;100.00;99680.44;1696038;83;21055;-66
2022/08/07 05:04:19;;;;;;;12.53;11.22;;;;;;;25.71;100.00;99677.58;1652059;83;21554;-66
2022/08/07 05:07:15;;;;;;;12.37;11.15;;;;;;;25.87;100.00;99673.81;1707509;82;21059;-67
2022/08/07 05:09:59;;;;;;;13.43;10.23;;;;;;;25.95;100.00;99669.96;1669341;83;21039;-66
2022/08/07 05:15:20;;;;;;;10.78;9.78;;;;;;;26.15;100.00;99669.45;1806750;79;22687;-67
2022/08/07 05:17:48;;;;;;;10.28;9.18;;;;;;;26.09;100.00;99677.14;1764241;80;21002;-66
2022/08/07 05:20:25;;;;;;;10.45;9.45;;;;;;;26.16;100.00;99679.44;1759461;79;21035;-67
2022/08/07 05:22:57;;;;;;;11.95;10.38;;;;;;;26.21;100.00;99684.73;1754805;81;21065;-67
2022/08/07 05:25:23;;;;;;;10.28;9.28;;;;;;;26.38;100.00;99681.16;1722371;82;21497;-67
2022/08/07 05:27:50;;;;;;;11.43;10.18;;;;;;;26.54;100.00;99668.61;1747256;81;21045;-66
2022/08/07 05:30:17;;;;;;;10.68;9.23;;;;;;;26.58;100.00;99670.86;1741248;79;20993;-67
2022/08/07 05:32:46;;;;;;;10.78;9.68;;;;;;;26.67;100.00;99669.98;1750639;81;21014;-68
2022/08/07 05:35:12;;;;;;;9.83;8.93;;;;;;;26.78;100.00;99673.49;1751226;79;21006;-67
2022/08/07 05:37:40;;;;;;;10.18;9.05;;;;;;;26.87;100.00;99672.03;1748218;79;21070;-67
2022/08/07 05:40:08;;;;;;;11.08;9.43;;;;;;;26.91;100.00;99674.86;1761730;79;21041;-66
2022/08/07 05:42:35;;;;;;;11.60;10.03;;;;;;;27.03;100.00;99679.57;1755502;81;21019;-66
2022/08/07 05:45:05;;;;;;;11.10;10.00;;;;;;;27.27;100.00;99683.02;1748177;79;21065;-67
2022/08/07 05:47:31;;;;;;;10.13;9.13;;;;;;;27.45;100.00;99683.43;1744872;81;21109;-68
2022/08/07 05:49:58;;;;;;;10.20;9.10;;;;;;;27.53;100.00;99676.69;1750257;79;20994;-67
2022/08/07 05:52:26;;;;;;;9.95;8.95;;;;;;;27.49;100.00;99670.88;1757398;80;21026;-68
2022/08/07 05:54:52;;;;;;;9.83;8.83;;;;;;;27.45;100.00;99671.44;1764490;79;20986;-66
2022/08/07 05:57:19;;;;;;;9.20;8.20;;;;;;;27.46;100.00;99675.23;1763873;81;21565;-66
2022/08/07 05:59:46;;;;;;;12.00;9.15;;;;;;;27.54;100.00;99673.30;1764885;81;21029;-65
2022/08/07 06:02:13;;;;;;;10.90;9.08;;;;;;;27.72;100.00;99677.64;1747884;79;22030;-66
2022/08/07 06:04:45;;;;;;;11.08;8.48;;;;;;;27.93;100.00;99688.98;1749359;81;20982;-67
2022/08/07 06:07:11;;;;;;;9.40;8.50;;;;;;;28.11;100.00;99682.95;1754247;79;21635;-71
2022/08/07 06:09:39;;;;;;;10.63;8.00;;;;;;;28.09;100.00;99673.53;1763975;81;21010;-68
2022/08/07 06:12:06;;;;;;;9.38;7.70;;;;;;;27.98;100.00;99688.63;1744437;80;21015;-67
2022/08/07 06:14:33;;;;;;;9.78;8.63;;;;;;;28.13;100.00;99674.36;1743501;80;21476;-67
2022/08/07 06:17:02;;;;;;;13.35;8.93;;;;;;;28.30;100.00;99681.86;1735645;79;21026;-66
2022/08/07 06:19:32;;;;;;;12.85;8.60;;;;;;;28.44;100.00;99686.14;1702608;81;21399;-67
2022/08/07 06:21:59;;;;;;;10.68;8.50;;;;;;;28.50;100.00;99682.56;1736044;79;20995;-68
2022/08/07 06:24:26;;;;;;;10.20;8.78;;;;;;;28.56;100.00;99687.17;1740569;79;21557;-67
2022/08/07 06:26:53;;;;;;;8.98;8.10;;;;;;;28.59;100.00;99688.59;1732443;79;21541;-69
2022/08/07 06:29:28;;;;;;;10.78;8.60;;;;;;;28.49;100.00;99685.74;1742018;80;20995;-66
2022/08/07 06:31:55;;;;;;;11.67;8.27;;;;;;;28.42;100.00;99683.72;1737735;81;21054;-67
2022/08/07 06:34:26;;;;;;;11.88;8.50;;;;;;;28.68;100.00;99685.47;1744451;80;21620;-66
2022/08/07 06:36:54;;;;;;;11.45;8.88;;;;;;;28.93;100.00;99679.36;1737758;81;21046;-66
2022/08/07 06:39:22;;;;;;;8.53;7.62;;;;;;;29.11;100.00;99680.20;1745362;80;21010;-68
2022/08/07 06:42:00;;;;;;;8.83;7.42;;;;;;;29.24;100.00;99675.61;1753691;79;21009;-68
2022/08/07 06:44:29;;;;;;;9.58;8.00;;;;;;;29.22;100.00;99665.41;1744868;80;21567;-69
2022/08/07 06:46:55;;;;;;;10.03;7.45;;;;;;;29.19;100.00;99666.20;1710248;81;20971;-69
2022/08/07 06:49:22;;;;;;;9.40;7.00;;;;;;;29.20;100.00;99671.98;1742058;79;21620;-69
2022/08/07 06:51:48;;;;;;;9.58;7.25;;;;;;;29.29;100.00;99668.25;1736343;80;21014;-70
2022/08/07 06:54:16;;;;;;;8.90;7.67;;;;;;;29.36;100.00;99670.46;1747443;79;21532;-68
2022/08/07 06:56:45;;;;;;;9.43;7.22;;;;;;;29.48;100.00;99663.04;1734171;79;21002;-68
2022/08/07 06:59:20;;;;;;;8.70;7.03;;;;;;;29.62;100.00;99671.45;1746812;79;21093;-68
2022/08/07 07:01:48;;;;;;;9.35;7.33;;;;;;;29.77;100.00;99667.23;1705344;81;21018;-68
2022/08/07 07:04:15;;;;;;;7.97;6.75;;;;;;;29.79;100.00;99667.66;1713815;80;21054;-66
2022/08/07 07:06:43;;;;;;;10.15;7.00;;;;;;;29.91;100.00;99668.06;1744910;79;21049;-67
2022/08/07 07:09:28;;;;;;;9.38;8.40;;;;;;;29.96;100.00;99664.05;1744278;79;21121;-67
2022/08/07 07:12:10;;;;;;;9.95;7.70;;;;;;;30.05;100.00;99666.63;1737916;80;20979;-68
2022/08/07 07:14:42;;;;;;;8.45;7.50;;;;;;;30.05;100.00;99670.84;1739879;81;21501;-66
2022/08/07 07:17:17;;;;;;;7.95;7.15;;;;;;;29.99;100.00;99666.84;1742014;80;21001;-67
2022/08/07 07:19:47;;;;;;;8.03;7.08;;;;;;;30.11;100.00;99670.61;1737366;80;21046;-68
2022/08/07 07:22:14;;;;;;;9.83;6.80;;;;;;;30.17;100.00;99680.04;1743283;81;21438;-66
2022/08/07 07:24:41;;;;;;;7.85;6.80;;;;;;;30.18;100.00;99672.63;1731115;80;21527;-65
2022/08/07 07:27:07;;;;;;;9.85;6.62;;;;;;;30.29;100.00;99676.81;1740961;81;21029;-67
2022/08/07 07:29:37;;;;;;;6.75;6.08;;;;;;;30.40;100.00;99681.17;1756193;79;21092;-66
2022/08/07 07:32:07;;;;;;;7.37;6.28;;;;;;;30.50;100.00;99683.16;1731568;79;20975;-66
2022/08/07 07:34:33;;;;;;;8.20;5.95;;;;;;;30.52;100.00;99675.15;1740849;79;21007;-66
2022/08/07 07:37:02;;;;;;;7.70;5.85;;;;;;;30.63;100.00;99682.73;1733140;79;21014;-66
2022/08/07 07:39:31;;;;;;;7.45;5.33;;;;;;;30.72;100.00;99678.27;1745265;80;21014;-65
2022/08/07 07:41:57;;;;;;;8.18;6.00;;;;;;;30.76;100.00;99679.66;1747230;79;20958;-66
2022/08/07 07:44:24;;;;;;;6.20;5.25;;;;;;;30.85;100.00;99684.23;1727659;80;21023;-66
2022/08/07 07:46:50;;;;;;;5.83;4.78;;;;;;;31.05;100.00;99679.73;1732926;80;21552;-66
2022/08/07 07:49:18;;;;;;;6.30;4.95;;;;;;;31.14;100.00;99682.10;1742873;81;21015;-67
2022/08/07 07:51:46;;;;;;;5.25;4.67;;;;;;;31.09;100.00;99683.33;1735550;80;21015;-67
2022/08/07 07:54:13;;;;;;;6.30;4.85;;;;;;;31.04;100.00;99680.33;1736682;81;21037;-67
2022/08/07 07:56:39;;;;;;;6.53;4.78;;;;;;;31.01;100.00;99683.97;1735915;81;20987;-67
2022/08/07 07:59:06;;;;;;;6.10;4.72;;;;;;;31.00;100.00;99682.36;1738015;81;21060;-66
2022/08/07 08:01:34;;;;;;;5.90;4.75;;;;;;;30.99;100.00;99677.97;1740088;79;21014;-68
2022/08/07 08:04:03;;;;;;;5.70;5.10;;;;;;;30.97;100.00;99685.19;1769673;80;21066;-66
2022/08/07 08:06:31;;;;;;;6.75;5.12;;;;;;;31.14;100.00;99682.10;1736805;79;20979;-65
2022/08/07 08:08:58;;;;;;;6.12;5.10;;;;;;;31.31;100.00;99684.80;1730882;81;21553;-65
2022/08/07 08:11:25;;;;;;;5.42;4.92;;;;;;;31.53;100.00;99673.59;1732408;79;21023;-65
2022/08/07 08:13:53;;;;;;;5.72;5.20;;;;;;;31.73;100.00;99670.22;1752022;80;21070;-66
2022/08/07 08:16:30;;;;;;;7.22;5.05;;;;;;;31.89;100.00;99677.50;1743772;79;21501;-67
2022/08/07 08:18:59;;;;;;;5.10;4.50;;;;;;;31.81;100.00;99673.97;1723719;80;21074;-66
2022/08/07 08:27:03;;;;;;;5.00;4.50;;;;;;;31.46;100.00;99679.88;1749361;79;20955;-68
2022/08/07 08:29:41;;;;;;;5.83;5.20;;;;;;;31.33;100.00;99683.77;1749039;80;21547;-65
2022/08/07 08:32:13;;;;;;;5.90;4.53;;;;;;;31.20;100.00;99677.03;1742357;81;20983;-68
2022/08/07 08:34:40;;;;;;;5.95;4.90;;;;;;;31.11;100.00;99678.71;1743811;79;21029;-68
2022/08/07 08:37:07;;;;;;;7.78;5.58;;;;;;;31.16;100.00;99676.86;1741433;81;20967;-67
2022/08/07 08:39:34;;;;;;;5.50;4.85;;;;;;;31.26;100.00;99673.17;1740535;79;21001;-67
2022/08/07 08:42:08;;;;;;;6.95;4.97;;;;;;;31.35;100.00;99669.30;1745123;79;21031;-68
2022/08/07 08:44:49;;;;;;;6.42;4.87;;;;;;;31.48;100.00;99661.95;1749677;80;21616;-67
2022/08/07 08:47:26;;;;;;;6.92;5.30;;;;;;;31.80;100.00;99658.90;1737697;80;21094;-68
2022/08/07 08:50:12;;;;;;;5.25;4.75;;;;;;;32.00;100.00;99661.30;1747587;79;21028;-67
2022/08/07 08:52:54;;;;;;;;;;;;;;;31.99;100.00;99659.09;1751035;79;21066;-66
2022/08/07 08:55:42;;;;;;;6.83;4.75;;;;;;;32.12;100.00;99650.16;1729174;79;20116;-68
2022/08/07 08:58:43;;;;;;;6.83;4.53;;;;;;;32.17;100.00;99649.08;1753557;80;21513;-67
2022/08/07 09:01:28;;;;;;;8.73;4.90;;;;;;;32.27;100.00;99653.02;1733461;81;21058;-67
2022/08/07 09:04:12;;;;;;;8.53;4.83;;;;;;;32.44;100.00;99644.95;1740643;80;21096;-68
2022/08/07 09:06:46;;;;;;;5.87;4.20;;;;;;;32.52;100.00;99644.43;1742223;80;21067;-67
2022/08/07 09:09:53;;;;;;;7.35;4.25;;;;;;;32.35;100.00;99638.41;1756895;81;21651;-68
2022/08/07 09:12:51;;;;;;;4.95;4.55;;;;;;;32.31;100.00;99634.83;1751508;81;21038;-68
2022/08/07 09:16:14;;;;;;;6.78;4.87;;;;;;;32.27;100.00;99633.30;1741425;79;21100;-67
2022/08/07 09:19:36;;;;;;;7.08;4.90;;;;;;;32.17;100.00;99634.22;1770339;79;21088;-69
2022/08/07 09:22:39;;;;;;;9.18;5.92;;;;;;;31.94;100.00;99637.65;1766888;79;21522;-66
2022/08/07 09:25:12;;;;;;;6.55;5.67;;;;;;;31.73;100.00;99631.62;1746214;79;21056;-66
2022/08/07 09:28:04;;;;;;;8.18;5.90;;;;;;;31.68;100.00;99633.47;1751492;81;21051;-68
2022/08/07 09:31:01;;;;;;;6.70;5.20;;;;;;;31.63;100.00;99624.09;1767174;79;21044;-66
2022/08/07 09:33:52;;;;;;;7.15;5.50;;;;;;;31.43;100.00;99632.25;1763469;81;21060;-67
2022/08/07 09:36:39;;;;;;;8.90;6.22;;;;;;;31.24;100.00;99639.05;1754863;79;21046;-68
2022/08/07 09:39:23;;;;;;;6.10;5.42;;;;;;;31.17;100.00;99639.91;1753770;80;21055;-66
2022/08/07 09:42:13;;;;;;;6.95;5.47;;;;;;;31.04;100.00;99630.33;1753059;81;20971;-67
2022/08/07 09:45:12;;;;;;;7.33;6.15;;;;;;;30.85;100.00;99632.25;1760854;81;21058;-67
2022/08/07 09:48:01;;;;;;;9.20;7.00;;;;;;;30.78;100.00;99633.70;1771486;81;21436;-65
2022/08/07 09:51:12;;;;;;;7.60;6.22;;;;;;;30.65;100.00;99637.56;1757666;79;20987;-66
2022/08/07 09:53:41;;;;;;;6.40;3.80;;;;;;;30.53;100.00;99652.89;1750161;79;21127;-67
2022/08/07 09:56:51;;;;;;;6.42;3.40;;;;;;;30.39;100.00;99641.68;1759140;79;21015;-67
2022/08/07 10:00:08;;;;;;;6.90;3.72;;;;;;;30.02;100.00;99635.16;1768116;81;21040;-65
2022/08/07 10:03:01;;;;;;;4.33;3.33;;;;;;;29.52;100.00;99624.58;1749946;79;21553;-68
2022/08/07 10:06:05;;;;;;;3.70;3.27;;;;;;;29.15;100.00;99628.36;1757069;81;21094;-68
2022/08/07 10:08:55;;;;;;;6.25;3.72;;;;;;;28.95;100.00;99627.91;1772063;79;21130;-66
2022/08/07 10:15:51;;;;;;;;;;;;;;;28.66;100.00;99624.83;1799627;78;22540;-67
2022/08/07 10:18:47;;;;;;;5.75;4.00;;;;;;;28.43;100.00;99630.73;1737816;82;20116;-68
2022/08/07 10:21:56;;;;;;;5.83;3.70;;;;;;;28.28;100.00;99642.25;1725905;83;21011;-68
2022/08/07 10:24:48;;;;;;;5.50;4.15;;;;;;;28.24;100.00;99652.03;1738491;81;21062;-67
2022/08/07 10:28:11;;;;;;;6.97;3.95;;;;;;;28.18;100.00;99655.81;1721242;81;21573;-67
2022/08/07 10:31:09;;;;;;;7.78;4.22;;;;;;;28.10;100.00;99649.96;1713055;82;21093;-67
2022/08/07 11:27:52;;;;;;;13.35;5.53;;;;;;;22.47;100.00;99765.98;1854021;75;22491;-66
2022/08/07 11:30:23;;;;;;;12.73;5.87;;;;;;;22.55;100.00;99781.70;1856234;75;21568;-68
2022/08/07 11:33:04;;;;;;;13.88;5.90;;;;;;;22.24;100.00;99792.61;1850329;75;20978;-68
2022/08/07 11:35:36;;;;;;;13.68;7.12;;;;;;;21.97;100.00;99790.52;1864424;75;21901;-69
2022/08/07 11:38:22;;;;;;;14.40;6.50;;;;;;;21.70;100.00;99791.40;1805702;75;21418;-69
2022/08/07 11:40:53;;;;;;;14.28;6.67;;;;;;;21.52;100.00;99782.23;1864165;75;21582;-68
2022/08/07 11:43:34;;;;;;;7.65;5.12;;;;;;;21.38;100.00;99780.36;1869086;75;20934;-68
2022/08/07 11:46:21;;;;;;;11.50;6.10;;;;;;;21.31;100.00;99778.16;1865238;75;21690;-69
2022/08/07 11:49:24;;;;;;;9.15;5.65;;;;;;;21.30;100.00;99765.45;1855606;75;20972;-68
2022/08/07 11:52:33;;;;;;;6.08;5.25;;;;;;;21.29;100.00;99758.32;1859253;75;21520;-67
2022/08/07 11:55:25;;;;;;;8.18;5.90;;;;;;;21.30;100.00;99757.14;1860859;75;20950;-67
2022/08/07 11:58:03;;;;;;;8.53;6.53;;;;;;;21.36;100.00;99759.14;1838599;75;20947;-68
2022/08/07 12:00:42;;;;;;;8.80;6.35;;;;;;;21.55;100.00;99758.82;1846876;76;20988;-68
2022/08/07 12:03:26;;;;;;;7.95;5.90;;;;;;;21.73;100.00;99751.92;1855055;75;20972;-68
2022/08/07 12:06:38;;;;;;;9.00;6.33;;;;;;;22.01;100.00;99730.47;1868885;75;21516;-68
2022/08/07 12:09:17;;;;;;;12.58;6.17;;;;;;;22.28;100.00;99736.09;1777141;76;21572;-68
2022/08/07 12:11:53;;;;;;;;;;;;;;;22.52;100.00;99758.01;1718231;82;20986;-67
2022/08/07 12:14:25;;;;;;;7.75;6.12;;;;;;;22.65;100.00;99760.97;1718738;81;20111;-66
2022/08/07 12:17:06;;;;;;;8.40;5.25;;;;;;;22.56;100.00;99758.93;1713370;82;20974;-65
2022/08/07 12:19:56;;;;;;;6.30;5.00;;;;;;;22.39;100.00;99746.72;1714759;81;21029;-68
2022/08/07 12:22:52;;;;;;;8.58;6.17;;;;;;;22.28;100.00;99738.08;1718987;81;21543;-66
2022/08/07 12:28:59;;;;;;;7.12;5.65;;;;;;;22.16;100.00;99718.67;1719597;81;21110;-65
2022/08/07 12:31:52;;;;;;;7.12;5.55;;;;;;;22.13;100.00;99720.19;1676034;84;21025;-65
2022/08/07 12:34:19;;;;;;;6.33;5.35;;;;;;;22.11;100.00;99733.58;1717568;82;21625;-66
2022/08/07 12:36:46;;;;;;;10.70;5.80;;;;;;;22.09;100.00;99740.05;1714762;83;20958;-65
2022/08/07 12:39:12;;;;;;;6.10;5.50;;;;;;;22.15;100.00;99746.16;1716525;82;21045;-65
2022/08/07 12:41:39;;;;;;;8.33;6.03;;;;;;;22.19;100.00;99741.54;1721920;82;20959;-65
2022/08/07 12:44:07;;;;;;;8.70;5.80;;;;;;;22.15;100.00;99745.58;1725845;82;21078;-63
2022/08/07 12:47:13;;;;;;;6.55;5.28;;;;;;;22.12;100.00;99755.17;1717934;82;20951;-64
2022/08/07 12:50:12;;;;;;;5.47;4.62;;;;;;;22.06;100.00;99768.48;1714507;82;21117;-66
2022/08/07 12:53:16;;;;;;;8.40;5.20;;;;;;;21.91;100.00;99789.13;1722373;82;21047;-66
2022/08/07 12:56:25;;;;;;;7.03;5.78;;;;;;;21.91;100.00;99789.13;1721718;82;21473;-66
2022/08/07 12:58:51;;;;;;;6.28;5.50;;;;;;;21.84;100.00;99790.49;1719173;82;21471;-64